createdAt,value
2019-03-06T00:00:32.713Z,46.33
2019-03-06T00:03:00.249Z,42.53
2019-03-06T00:05:27.760Z,37.37
2019-03-06T00:07:55.445Z,37.03
2019-03-06T00:10:25.305Z,34.90
2019-03-06T00:12:52.793Z,29.23
2019-03-06T00:15:20.285Z,30.33
2019-03-06T00:17:47.836Z,27.87
2019-03-06T00:20:15.631Z,27.53
2019-03-06T00:23:02.622Z,25.27
2019-03-06T00:25:30.181Z,17.60
2019-03-06T00:27:57.698Z,17.93
2019-03-06T00:30:25.497Z,18.30
2019-03-06T00:32:53.060Z,16.17
2019-03-06T00:35:23.628Z,19.53
2019-03-06T00:37:51.126Z,16.13
2019-03-06T00:40:32.919Z,19.70
2019-03-06T00:43:00.404Z,15.03
2019-03-06T00:45:27.957Z,18.97
2019-03-06T00:47:55.556Z,19.00
2019-03-06T00:50:23.072Z,14.37
2019-03-06T00:52:50.598Z,17.10
2019-03-06T00:55:18.260Z,19.97
2019-03-06T00:57:45.795Z,20.03
2019-03-06T01:00:13.772Z,20.60
2019-03-06T01:02:41.381Z,22.03
2019-03-06T01:05:09.410Z,19.33
2019-03-06T01:07:37.232Z,21.37
2019-03-06T01:10:05.231Z,19.10
2019-03-06T01:12:32.741Z,20.53
2019-03-06T01:15:00.315Z,21.67
2019-03-06T01:17:27.838Z,21.60
2019-03-06T01:19:55.342Z,22.57
2019-03-06T01:22:22.868Z,16.83
2019-03-06T01:24:50.396Z,17.63
2019-03-06T01:27:17.974Z,21.60
2019-03-06T01:29:45.482Z,16.30
2019-03-06T01:32:12.998Z,19.73
2019-03-06T01:35:18.752Z,25.13
2019-03-06T01:38:11.366Z,18.07
2019-03-06T01:40:51.370Z,21.83
2019-03-06T01:43:27.141Z,21.40
2019-03-06T01:45:54.701Z,23.83
2019-03-06T01:48:22.238Z,20.50
2019-03-06T01:50:49.784Z,27.40
2019-03-06T01:53:17.332Z,21.20
2019-03-06T01:55:44.846Z,18.77
2019-03-06T01:58:12.432Z,23.37
2019-03-06T02:00:40.286Z,25.13
2019-03-06T02:03:07.825Z,21.37
2019-03-06T02:05:35.366Z,21.73
2019-03-06T02:08:03.203Z,23.77
2019-03-06T02:10:31.471Z,24.37
2019-03-06T02:12:59.288Z,29.47
2019-03-06T02:15:26.824Z,22.93
2019-03-06T02:17:54.353Z,17.67
2019-03-06T02:20:21.893Z,15.23
2019-03-06T02:22:49.451Z,15.67
2019-03-06T02:25:16.981Z,8.50
2019-03-06T02:27:44.998Z,6.27
2019-03-06T02:30:14.928Z,5.67
2019-03-06T02:32:42.447Z,7.07
2019-03-06T02:35:09.978Z,7.17
2019-03-06T02:37:37.527Z,4.67
2019-03-06T02:40:05.143Z,6.13
2019-03-06T02:42:32.655Z,3.27
2019-03-06T02:45:00.332Z,4.47
2019-03-06T02:47:28.058Z,4.80
2019-03-06T02:49:55.581Z,9.50
2019-03-06T02:52:23.129Z,6.57
2019-03-06T02:54:50.635Z,5.93
2019-03-06T02:57:18.161Z,5.00
2019-03-06T02:59:54.184Z,4.73
2019-03-06T03:02:35.354Z,3.07
2019-03-06T03:05:28.539Z,2.10
2019-03-06T03:07:56.064Z,1.20
2019-03-06T03:10:23.616Z,2.00
2019-03-06T03:12:51.136Z,1.67
2019-03-06T03:15:19.052Z,3.17
2019-03-06T03:17:46.639Z,2.10
2019-03-06T03:20:14.449Z,1.13
2019-03-06T03:22:41.987Z,1.33
2019-03-06T03:25:09.516Z,2.03
2019-03-06T03:27:37.034Z,2.83
2019-03-06T03:30:07.473Z,1.70
2019-03-06T03:32:34.979Z,2.53
2019-03-06T03:35:02.505Z,2.83
2019-03-06T03:37:30.036Z,2.40
2019-03-06T03:39:57.564Z,3.20
2019-03-06T03:42:25.594Z,3.60
2019-03-06T03:44:53.141Z,3.43
2019-03-06T03:47:20.667Z,5.10
2019-03-06T03:49:48.197Z,4.43
2019-03-06T03:52:15.728Z,3.00
2019-03-06T03:54:43.271Z,5.37
2019-03-06T03:57:11.272Z,4.00
2019-03-06T03:59:38.891Z,4.23
2019-03-06T04:02:06.443Z,4.93
2019-03-06T04:04:33.964Z,4.70
2019-03-06T04:07:01.546Z,4.60
2019-03-06T04:09:29.100Z,7.47
2019-03-06T04:11:56.915Z,5.77
2019-03-06T04:14:24.440Z,5.27
2019-03-06T04:16:52.007Z,6.23
2019-03-06T04:19:19.524Z,8.63
2019-03-06T04:21:47.040Z,9.47
2019-03-06T04:24:14.600Z,8.80
2019-03-06T04:26:42.445Z,8.10
2019-03-06T04:29:11.726Z,10.50
2019-03-06T04:31:39.215Z,16.60
2019-03-06T04:34:06.728Z,15.30
2019-03-06T04:36:34.232Z,18.60
2019-03-06T04:39:01.750Z,11.53
2019-03-06T04:41:29.258Z,11.37
2019-03-06T04:43:56.767Z,8.97
2019-03-06T04:46:24.262Z,10.33
2019-03-06T04:48:51.750Z,17.07
2019-03-06T04:51:19.290Z,17.80
2019-03-06T04:53:47.078Z,15.13
2019-03-06T04:56:14.564Z,10.67
2019-03-06T04:58:42.101Z,12.73
2019-03-06T05:01:09.596Z,11.03
2019-03-06T05:03:37.098Z,11.40
2019-03-06T05:06:04.597Z,13.30
2019-03-06T05:08:32.328Z,15.63
2019-03-06T05:10:59.820Z,12.07
2019-03-06T05:13:27.318Z,9.20
2019-03-06T05:15:54.824Z,12.47
2019-03-06T05:18:40.547Z,13.43
2019-03-06T05:21:08.116Z,12.10
2019-03-06T05:23:35.598Z,21.53
2019-03-06T05:26:03.134Z,18.43
2019-03-06T05:28:30.640Z,15.40
2019-03-06T05:30:58.160Z,13.07
2019-03-06T05:33:25.889Z,12.10
2019-03-06T05:36:28.489Z,9.87
2019-03-06T05:39:10.040Z,7.83
2019-03-06T05:41:37.571Z,12.37
2019-03-06T05:44:05.087Z,9.57
2019-03-06T05:46:32.700Z,12.03
2019-03-06T05:49:00.203Z,11.83
2019-03-06T05:51:27.752Z,15.37
2019-03-06T05:53:55.252Z,14.53
2019-03-06T05:56:22.786Z,13.03
2019-03-06T05:58:50.281Z,16.80
2019-03-06T06:01:17.812Z,15.43
2019-03-06T06:03:46.212Z,12.97
2019-03-06T06:06:13.736Z,14.23
2019-03-06T06:08:41.238Z,16.40
2019-03-06T06:11:08.789Z,27.03
2019-03-06T06:13:36.296Z,29.13
2019-03-06T06:16:03.782Z,25.40
2019-03-06T06:18:31.302Z,18.20
2019-03-06T06:21:17.166Z,15.27
2019-03-06T06:23:48.386Z,18.17
2019-03-06T06:26:15.906Z,17.87
2019-03-06T06:28:43.421Z,16.37
2019-03-06T06:31:10.945Z,19.87
2019-03-06T06:33:38.462Z,20.27
2019-03-06T06:36:06.486Z,21.73
2019-03-06T06:38:33.998Z,20.50
2019-03-06T06:41:01.717Z,30.33
2019-03-06T06:43:29.229Z,16.63
2019-03-06T06:45:56.771Z,20.67
2019-03-06T06:48:25.211Z,17.37
2019-03-06T06:51:47.102Z,16.07
2019-03-06T06:54:23.408Z,15.97
2019-03-06T06:57:16.208Z,15.73
2019-03-06T07:01:09.706Z,12.23
2019-03-06T07:05:03.188Z,15.40
2019-03-06T07:07:52.962Z,12.87
2019-03-06T07:10:42.816Z,17.13
2019-03-06T07:13:38.918Z,9.67
2019-03-06T07:16:21.192Z,9.43
2019-03-06T07:19:08.210Z,11.47
2019-03-06T07:21:56.545Z,10.77
2019-03-06T07:24:46.398Z,8.80
2019-03-06T07:27:28.118Z,10.50
2019-03-06T07:30:20.960Z,12.67
2019-03-06T07:32:57.827Z,9.10
2019-03-06T07:36:19.770Z,12.97
2019-03-06T07:38:50.285Z,16.80
2019-03-06T07:41:43.130Z,15.90
2019-03-06T07:44:30.474Z,18.37
2019-03-06T07:47:29.765Z,16.97
2019-03-06T07:50:15.905Z,16.23
2019-03-06T07:53:23.264Z,15.43
2019-03-06T07:56:10.322Z,18.60
2019-03-06T07:58:51.922Z,17.40
2019-03-06T08:01:19.473Z,9.90
2019-03-06T08:04:20.837Z,15.47
2019-03-06T08:07:25.986Z,15.40
2019-03-06T08:09:53.498Z,15.93
2019-03-06T08:12:39.219Z,17.17
2019-03-06T08:15:38.310Z,18.07
2019-03-06T08:18:28.057Z,20.40
2019-03-06T08:21:03.910Z,17.17
2019-03-06T08:23:50.981Z,26.73
2019-03-06T08:26:18.536Z,22.97
2019-03-06T08:28:46.058Z,23.47
2019-03-06T08:31:22.399Z,26.87
2019-03-06T08:33:49.921Z,19.17
2019-03-06T08:36:17.462Z,16.67
2019-03-06T08:38:44.969Z,19.83
2019-03-06T08:41:12.482Z,16.07
2019-03-06T08:43:40.012Z,16.43
2019-03-06T08:46:35.922Z,17.77
2019-03-06T08:49:35.947Z,16.73
2019-03-06T08:52:22.924Z,12.63
2019-03-06T08:55:10.938Z,14.43
2019-03-06T08:57:57.713Z,13.13
2019-03-06T09:00:50.653Z,17.43
2019-03-06T09:03:42.184Z,16.77
2019-03-06T09:06:39.422Z,13.67
2019-03-06T09:09:25.456Z,16.03
2019-03-06T09:12:12.582Z,15.13
2019-03-06T09:14:59.077Z,16.93
2019-03-06T09:17:44.866Z,18.70
2019-03-06T09:20:23.561Z,18.27
2019-03-06T09:23:11.598Z,25.47
2019-03-06T09:26:01.609Z,22.00
2019-03-06T09:28:42.158Z,25.53
2019-03-06T09:31:29.300Z,25.40
2019-03-06T09:34:14.953Z,30.10
2019-03-06T09:37:05.854Z,29.87
2019-03-06T09:39:40.794Z,26.00
2019-03-06T09:42:33.930Z,23.50
2019-03-06T09:45:09.893Z,23.57
2019-03-06T09:47:56.920Z,24.27
2019-03-06T09:50:32.895Z,23.63
2019-03-06T09:53:15.135Z,28.93
2019-03-06T09:55:57.633Z,29.97
2019-03-06T09:58:44.611Z,29.03
2019-03-06T10:01:40.546Z,33.43
2019-03-06T10:04:27.575Z,31.97
2019-03-06T10:07:03.805Z,28.83
2019-03-06T10:09:39.629Z,34.90
2019-03-06T10:12:18.068Z,30.43
2019-03-06T10:14:54.568Z,32.43
2019-03-06T10:17:30.395Z,36.83
2019-03-06T10:20:04.647Z,25.33
2019-03-06T10:22:32.145Z,29.73
2019-03-06T10:24:59.958Z,38.23
2019-03-06T10:27:31.958Z,45.27
2019-03-06T10:29:59.495Z,44.47
2019-03-06T10:32:26.985Z,48.77
2019-03-06T10:34:55.180Z,44.77
2019-03-06T10:37:22.801Z,51.00
2019-03-06T10:39:50.353Z,47.63
2019-03-06T10:42:17.863Z,50.40
2019-03-06T10:44:45.533Z,43.10
2019-03-06T10:47:13.047Z,53.03
2019-03-06T10:49:40.551Z,45.03
2019-03-06T10:52:08.064Z,49.90
2019-03-06T10:54:44.311Z,47.70
2019-03-06T10:57:05.477Z,52.40
2019-03-06T10:59:33.293Z,60.13
2019-03-06T11:02:00.851Z,50.77
2019-03-06T11:04:43.497Z,57.53
2019-03-06T11:07:11.446Z,60.23
2019-03-06T11:09:38.970Z,41.83
2019-03-06T11:12:06.683Z,47.20
2019-03-06T11:14:34.601Z,45.27
2019-03-06T11:17:02.161Z,49.33
2019-03-06T11:19:30.001Z,50.20
2019-03-06T11:21:57.491Z,52.30
2019-03-06T11:24:25.010Z,45.47
2019-03-06T11:26:53.092Z,45.97
2019-03-06T11:29:20.702Z,42.33
2019-03-06T11:31:55.442Z,45.90
2019-03-06T11:34:23.041Z,43.93
2019-03-06T11:36:51.138Z,47.03
2019-03-06T11:39:19.385Z,46.37
2019-03-06T11:41:47.001Z,46.57
2019-03-06T11:44:14.587Z,52.67
2019-03-06T11:46:42.259Z,49.33
2019-03-06T11:49:09.752Z,49.60
2019-03-06T11:51:37.329Z,65.77
2019-03-06T11:54:04.913Z,71.03
2019-03-06T11:56:32.621Z,64.57
2019-03-06T11:59:00.217Z,55.90
2019-03-06T12:01:29.983Z,62.77
2019-03-06T12:03:58.266Z,72.77
2019-03-06T12:06:25.768Z,57.27
2019-03-06T12:08:53.383Z,56.73
2019-03-06T12:11:20.929Z,47.03
2019-03-06T12:13:48.534Z,42.83
2019-03-06T12:16:18.113Z,40.17
2019-03-06T12:18:45.687Z,44.60
2019-03-06T12:21:13.191Z,46.87
2019-03-06T12:23:40.807Z,53.53
2019-03-06T12:26:08.337Z,48.70
2019-03-06T12:28:35.875Z,50.80
2019-03-06T12:31:07.365Z,63.67
2019-03-06T12:33:34.829Z,53.63
2019-03-06T12:36:02.337Z,51.53
2019-03-06T12:38:29.879Z,39.67
2019-03-06T12:40:57.372Z,46.27
2019-03-06T12:43:24.877Z,53.23
2019-03-06T12:46:22.663Z,46.07
2019-03-06T12:48:47.737Z,46.83
2019-03-06T12:51:15.251Z,37.53
2019-03-06T12:53:42.831Z,38.93
2019-03-06T12:56:10.353Z,43.50
2019-03-06T12:58:38.257Z,50.10
2019-03-06T13:01:05.815Z,46.53
2019-03-06T13:03:33.355Z,37.73
2019-03-06T13:06:00.829Z,32.13
2019-03-06T13:08:28.354Z,39.03
2019-03-06T13:10:58.380Z,32.63
2019-03-06T13:13:35.250Z,44.10
2019-03-06T13:15:54.724Z,44.87
2019-03-06T13:18:22.247Z,39.40
2019-03-06T13:20:49.778Z,50.07
2019-03-06T13:23:17.295Z,35.90
2019-03-06T13:25:44.943Z,31.43
2019-03-06T13:28:12.475Z,28.60
2019-03-06T13:30:40.086Z,37.70
2019-03-06T13:33:17.908Z,31.83
2019-03-06T13:35:45.423Z,27.07
2019-03-06T13:38:12.967Z,32.60
2019-03-06T13:40:40.673Z,28.70
2019-03-06T13:43:08.218Z,26.43
2019-03-06T13:45:35.853Z,29.47
2019-03-06T13:48:03.384Z,25.43
2019-03-06T13:50:30.917Z,21.17
2019-03-06T13:52:58.613Z,21.93
2019-03-06T13:55:26.161Z,26.67
2019-03-06T13:57:53.665Z,22.10
2019-03-06T14:00:21.489Z,28.47
2019-03-06T14:02:49.254Z,22.77
2019-03-06T14:05:17.281Z,22.37
2019-03-06T14:07:44.853Z,26.33
2019-03-06T14:10:14.983Z,24.73
2019-03-06T14:12:42.488Z,19.53
2019-03-06T14:15:10.465Z,28.53
2019-03-06T14:17:38.098Z,35.73
2019-03-06T14:20:05.863Z,23.03
2019-03-06T14:22:33.392Z,22.23
2019-03-06T14:25:00.937Z,19.53
2019-03-06T14:27:28.468Z,19.73
2019-03-06T14:29:56.025Z,21.87
2019-03-06T14:32:23.629Z,18.50
2019-03-06T14:34:51.211Z,16.30
2019-03-06T14:37:18.737Z,17.43
2019-03-06T14:39:46.335Z,16.47
2019-03-06T14:42:13.875Z,18.90
2019-03-06T14:44:41.419Z,16.83
2019-03-06T14:47:09.531Z,14.27
2019-03-06T14:49:37.111Z,16.13
2019-03-06T14:52:07.493Z,25.23
2019-03-06T14:54:34.066Z,28.90
2019-03-06T14:57:01.631Z,17.00
2019-03-06T14:59:29.149Z,18.60
2019-03-06T15:01:56.707Z,24.97
2019-03-06T15:04:26.185Z,24.23
2019-03-06T15:06:53.726Z,27.13
2019-03-06T15:09:23.536Z,22.77
2019-03-06T15:11:51.113Z,26.60
2019-03-06T15:14:18.689Z,26.53
2019-03-06T15:16:46.275Z,22.77
2019-03-06T15:19:13.871Z,23.67
2019-03-06T15:21:41.394Z,21.27
2019-03-06T15:24:08.925Z,23.03
2019-03-06T15:26:36.513Z,20.37
2019-03-06T15:29:04.132Z,17.07
2019-03-06T15:31:31.731Z,28.90
2019-03-06T15:33:59.668Z,30.53
2019-03-06T15:36:27.475Z,30.33
2019-03-06T15:38:55.035Z,48.70
2019-03-06T15:41:22.898Z,29.63
2019-03-06T15:43:51.411Z,31.17
2019-03-06T15:46:18.993Z,32.50
2019-03-06T15:48:46.574Z,30.20
2019-03-06T15:51:14.191Z,38.87
2019-03-06T15:53:41.726Z,40.07
2019-03-06T15:56:09.255Z,50.40
2019-03-06T15:58:36.893Z,59.13
2019-03-06T16:01:04.451Z,64.30
2019-03-06T16:03:32.209Z,55.13
2019-03-06T16:05:59.728Z,58.60
2019-03-06T16:08:27.729Z,58.97
2019-03-06T16:10:55.274Z,58.03
2019-03-06T16:13:22.960Z,41.90
2019-03-06T16:15:50.506Z,50.57
2019-03-06T16:18:18.059Z,48.77
2019-03-06T16:20:45.602Z,52.37
2019-03-06T16:23:14.369Z,50.23
2019-03-06T16:25:41.997Z,44.23
2019-03-06T16:28:09.588Z,45.10
2019-03-06T16:30:38.643Z,53.13
2019-03-06T16:33:06.213Z,48.17
2019-03-06T16:35:33.746Z,71.43
2019-03-06T16:38:03.196Z,63.50
2019-03-06T16:40:30.814Z,78.97
2019-03-06T16:42:58.357Z,110.77
2019-03-06T16:45:28.933Z,83.07
2019-03-06T16:47:56.889Z,108.77
2019-03-06T16:50:24.570Z,106.13
2019-03-06T16:52:52.336Z,120.80
2019-03-06T16:55:20.402Z,102.63
2019-03-06T16:57:48.120Z,69.40
2019-03-06T17:00:24.412Z,80.27
2019-03-06T17:02:52.325Z,78.50
2019-03-06T17:05:20.648Z,93.87
2019-03-06T17:07:49.453Z,74.70
2019-03-06T17:10:17.537Z,98.33
2019-03-06T17:12:45.098Z,102.53
2019-03-06T17:15:13.594Z,114.77
2019-03-06T17:17:41.213Z,99.77
2019-03-06T17:20:08.991Z,72.27
2019-03-06T17:22:36.576Z,67.77
2019-03-06T17:25:04.566Z,71.20
2019-03-06T17:27:32.112Z,79.17
2019-03-06T17:29:59.731Z,97.63
2019-03-06T17:32:27.273Z,88.43
2019-03-06T17:34:54.879Z,90.47
2019-03-06T17:37:22.493Z,83.37
2019-03-06T17:39:50.062Z,83.93
2019-03-06T17:42:17.895Z,80.27
2019-03-06T17:44:45.445Z,82.07
2019-03-06T17:47:13.000Z,84.00
2019-03-06T17:49:40.609Z,80.13
2019-03-06T17:52:08.218Z,87.10
2019-03-06T17:54:35.761Z,110.73
2019-03-06T17:57:03.340Z,87.47
2019-03-06T17:59:30.967Z,104.50
2019-03-06T18:01:58.624Z,90.60
2019-03-06T18:04:27.451Z,91.03
2019-03-06T18:06:55.009Z,89.07
2019-03-06T18:09:22.578Z,109.53
2019-03-06T18:11:50.205Z,88.93
2019-03-06T18:14:18.295Z,95.87
2019-03-06T18:16:45.917Z,88.47
2019-03-06T18:19:13.601Z,90.30
2019-03-06T18:21:41.213Z,90.83
2019-03-06T18:24:08.800Z,91.03
2019-03-06T18:26:36.435Z,114.37
2019-03-06T18:29:04.102Z,84.43
2019-03-06T18:31:32.164Z,80.03
2019-03-06T18:33:59.741Z,89.93
2019-03-06T18:36:27.307Z,70.77
2019-03-06T18:38:54.927Z,78.60
2019-03-06T18:41:22.541Z,88.17
2019-03-06T18:43:50.093Z,73.70
2019-03-06T18:46:17.724Z,68.83
2019-03-06T18:48:45.820Z,64.67
2019-03-06T18:51:13.374Z,74.23
2019-03-06T18:53:40.960Z,70.70
2019-03-06T18:56:08.562Z,80.77
2019-03-06T18:58:36.210Z,74.33
2019-03-06T19:01:04.168Z,80.47
2019-03-06T19:03:31.726Z,74.93
2019-03-06T19:05:59.565Z,78.53
2019-03-06T19:08:31.223Z,85.20
2019-03-06T19:10:56.637Z,71.37
2019-03-06T19:13:24.360Z,63.80
2019-03-06T19:15:53.769Z,84.03
2019-03-06T19:18:22.262Z,80.43
2019-03-06T19:20:49.789Z,71.10
2019-03-06T19:23:17.413Z,78.73
2019-03-06T19:25:44.936Z,67.53
2019-03-06T19:28:12.505Z,70.70
2019-03-06T19:30:40.090Z,76.50
2019-03-06T19:33:07.666Z,87.00
2019-03-06T19:35:35.256Z,107.27
2019-03-06T19:38:02.804Z,95.13
2019-03-06T19:40:30.364Z,109.57
2019-03-06T19:42:57.974Z,120.57
2019-03-06T19:45:25.971Z,95.30
2019-03-06T19:47:53.496Z,100.17
2019-03-06T19:50:21.180Z,102.83
2019-03-06T19:52:49.144Z,78.53
2019-03-06T19:55:17.728Z,76.13
2019-03-06T19:57:56.328Z,73.93
2019-03-06T20:00:24.696Z,72.47
2019-03-06T20:02:52.305Z,73.70
2019-03-06T20:05:20.527Z,80.87
2019-03-06T20:07:48.256Z,72.67
2019-03-06T20:10:16.496Z,78.50
2019-03-06T20:12:44.064Z,80.53
2019-03-06T20:15:12.108Z,88.13
2019-03-06T20:17:39.672Z,78.43
2019-03-06T20:20:07.769Z,76.17
2019-03-06T20:22:35.411Z,84.07
2019-03-06T20:25:03.180Z,78.43
2019-03-06T20:27:30.813Z,81.47
2019-03-06T20:29:58.406Z,82.47
2019-03-06T20:32:26.039Z,81.37
2019-03-06T20:34:53.586Z,77.63
2019-03-06T20:37:21.152Z,82.50
2019-03-06T20:39:48.712Z,82.73
2019-03-06T20:42:16.348Z,100.67
2019-03-06T20:44:43.917Z,79.97
2019-03-06T20:47:11.682Z,87.83
2019-03-06T20:49:39.233Z,91.37
2019-03-06T20:52:06.834Z,88.33
2019-03-06T20:54:34.396Z,97.33
2019-03-06T20:57:01.961Z,108.40
2019-03-06T20:59:29.532Z,88.10
2019-03-06T21:01:57.079Z,90.60
2019-03-06T21:04:24.636Z,86.27
2019-03-06T21:06:52.225Z,80.63
2019-03-06T21:09:19.795Z,89.53
2019-03-06T21:11:47.700Z,99.50
2019-03-06T21:14:15.369Z,96.37
2019-03-06T21:16:43.020Z,99.53
2019-03-06T21:19:10.607Z,90.53
2019-03-06T21:21:38.168Z,76.47
2019-03-06T21:24:05.692Z,76.70
2019-03-06T21:26:33.279Z,80.27
2019-03-06T21:29:00.929Z,73.83
2019-03-06T21:31:28.572Z,79.70
2019-03-06T21:33:56.153Z,77.00
2019-03-06T21:36:23.668Z,81.37
2019-03-06T21:38:51.268Z,82.37
2019-03-06T21:41:18.780Z,77.83
2019-03-06T21:43:46.318Z,83.10
2019-03-06T21:46:14.167Z,76.70
2019-03-06T21:48:41.720Z,82.00
2019-03-06T21:51:09.205Z,78.03
2019-03-06T21:53:38.963Z,84.33
2019-03-06T21:56:06.080Z,82.57
2019-03-06T21:58:33.626Z,85.03
2019-03-06T22:01:01.217Z,81.90
2019-03-06T22:03:29.088Z,75.00
2019-03-06T22:05:56.604Z,70.27
2019-03-06T22:08:24.162Z,73.57
2019-03-06T22:10:51.710Z,84.13
2019-03-06T22:13:19.243Z,91.87
2019-03-06T22:15:46.780Z,83.10
2019-03-06T22:18:14.336Z,81.83
2019-03-06T22:20:42.237Z,83.03
2019-03-06T22:23:09.841Z,79.23
2019-03-06T22:25:37.376Z,75.77
2019-03-06T22:28:04.909Z,77.13
2019-03-06T22:30:32.475Z,83.63
2019-03-06T22:32:59.992Z,73.03
2019-03-06T22:35:27.509Z,83.17
2019-03-06T22:37:57.180Z,81.27
2019-03-06T22:40:24.352Z,72.63
2019-03-06T22:42:51.929Z,76.73
2019-03-06T22:45:19.503Z,79.23
2019-03-06T22:47:47.037Z,81.80
2019-03-06T22:50:14.725Z,77.50
2019-03-06T22:52:42.248Z,77.03
2019-03-06T22:55:11.746Z,71.10
2019-03-06T22:57:39.307Z,67.80
2019-03-06T23:00:34.138Z,66.60
2019-03-06T23:03:01.644Z,63.70
2019-03-06T23:05:30.076Z,78.70
2019-03-06T23:07:57.644Z,64.63
2019-03-06T23:10:25.187Z,70.00
2019-03-06T23:12:52.755Z,72.77
2019-03-06T23:15:20.243Z,77.10
2019-03-06T23:17:47.788Z,62.67
2019-03-06T23:20:15.408Z,64.50
2019-03-06T23:22:42.885Z,71.87
2019-03-06T23:25:10.419Z,61.27
2019-03-06T23:27:37.927Z,65.83
2019-03-06T23:30:08.310Z,58.03
2019-03-06T23:32:35.824Z,60.20
2019-03-06T23:35:03.874Z,58.43
2019-03-06T23:37:31.416Z,56.37
2019-03-06T23:39:58.926Z,62.97
2019-03-06T23:42:26.427Z,64.40
2019-03-06T23:44:53.986Z,63.03
2019-03-06T23:47:21.506Z,52.23
2019-03-06T23:49:49.106Z,57.13
2019-03-06T23:52:24.712Z,56.57
2019-03-06T23:54:52.217Z,51.23
2019-03-06T23:57:20.022Z,53.50
2019-03-06T23:59:47.574Z,56.93
